sensor_id;sensor_type;location;lat;lon;timestamp;pressure;altitude;pressure_sealevel;temperature;humidity
68376;BME280;55318;52.068;5.188;2023-03-20T00:02:20;101978.0;;;10.55;87.95
68376;BME280;55318;52.068;5.188;2023-03-20T00:03:58;101975.0;;;10.53;88.24
68376;BME280;55318;52.068;5.188;2023-03-20T00:05:35;101975.0;;;10.64;87.76
68376;BME280;55318;52.068;5.188;2023-03-20T00:07:11;101983.0;;;10.41;88.7
68376;BME280;55318;52.068;5.188;2023-03-20T00:10:31;101980.0;;;10.54;88.38
68376;BME280;55318;52.068;5.188;2023-03-20T00:12:14;101980.0;;;10.47;88.67
68376;BME280;55318;52.068;5.188;2023-03-20T00:13:55;101977.0;;;10.55;88.34
68376;BME280;55318;52.068;5.188;2023-03-20T00:15:35;101984.0;;;10.48;88.64
68376;BME280;55318;52.068;5.188;2023-03-20T00:18:53;101969.0;;;10.52;88.06
68376;BME280;55318;52.068;5.188;2023-03-20T00:20:30;101967.0;;;10.58;87.75
68376;BME280;55318;52.068;5.188;2023-03-20T00:22:07;101965.0;;;10.55;87.89
68376;BME280;55318;52.068;5.188;2023-03-20T00:25:22;101957.0;;;10.7;87.11
68376;BME280;55318;52.068;5.188;2023-03-20T00:27:00;101956.0;;;10.67;86.89
68376;BME280;55318;52.068;5.188;2023-03-20T00:28:37;101953.0;;;10.67;86.7
68376;BME280;55318;52.068;5.188;2023-03-20T00:30:20;101955.0;;;10.66;85.4
68376;BME280;55318;52.068;5.188;2023-03-20T00:33:35;101955.0;;;10.73;85.12
68376;BME280;55318;52.068;5.188;2023-03-20T00:35:22;101958.0;;;10.76;84.2
68376;BME280;55318;52.068;5.188;2023-03-20T00:36:59;101968.0;;;10.83;83.7
68376;BME280;55318;52.068;5.188;2023-03-20T00:38:35;101966.0;;;10.77;83.35
68376;BME280;55318;52.068;5.188;2023-03-20T00:41:50;101968.0;;;10.72;83.55
68376;BME280;55318;52.068;5.188;2023-03-20T00:43:28;101975.0;;;10.69;83.37
68376;BME280;55318;52.068;5.188;2023-03-20T00:45:07;101982.0;;;10.86;82.91
68376;BME280;55318;52.068;5.188;2023-03-20T00:48:29;101981.0;;;10.69;82.97
68376;BME280;55318;52.068;5.188;2023-03-20T00:50:13;101983.0;;;10.67;82.7
68376;BME280;55318;52.068;5.188;2023-03-20T00:51:51;101992.0;;;10.65;82.38
68376;BME280;55318;52.068;5.188;2023-03-20T00:53:27;101995.0;;;10.75;81.91
68376;BME280;55318;52.068;5.188;2023-03-20T00:56:42;102005.0;;;10.66;82.59
68376;BME280;55318;52.068;5.188;2023-03-20T00:58:20;102002.0;;;10.6;82.41
68376;BME280;55318;52.068;5.188;2023-03-20T00:59:58;102006.0;;;10.63;82.37
68376;BME280;55318;52.068;5.188;2023-03-20T01:01:37;102020.0;;;10.57;82.4
68376;BME280;55318;52.068;5.188;2023-03-20T01:04:54;102017.0;;;10.6;82.57
68376;BME280;55318;52.068;5.188;2023-03-20T01:06:31;102007.0;;;10.5;82.13
68376;BME280;55318;52.068;5.188;2023-03-20T01:08:16;101995.0;;;10.48;82.02
68376;BME280;55318;52.068;5.188;2023-03-20T01:09:54;101997.0;;;10.47;81.59
68376;BME280;55318;52.068;5.188;2023-03-20T01:13:15;101984.0;;;10.56;81.56
68376;BME280;55318;52.068;5.188;2023-03-20T01:14:55;101992.0;;;10.56;81.41
68376;BME280;55318;52.068;5.188;2023-03-20T01:16:33;101999.0;;;10.59;81.16
68376;BME280;55318;52.068;5.188;2023-03-20T01:19:48;102005.0;;;10.55;81.31
68376;BME280;55318;52.068;5.188;2023-03-20T01:21:25;102002.0;;;10.4;82.11
68376;BME280;55318;52.068;5.188;2023-03-20T01:23:01;102001.0;;;10.34;82.12
68376;BME280;55318;52.068;5.188;2023-03-20T01:24:38;101996.0;;;10.42;82.44
68376;BME280;55318;52.068;5.188;2023-03-20T01:27:59;102001.0;;;10.55;82.19
68376;BME280;55318;52.068;5.188;2023-03-20T01:29:36;102001.0;;;10.56;82.06
68376;BME280;55318;52.068;5.188;2023-03-20T01:31:14;102005.0;;;10.39;82.23
68376;BME280;55318;52.068;5.188;2023-03-20T01:34:30;101998.0;;;10.59;81.7
68376;BME280;55318;52.068;5.188;2023-03-20T01:36:08;101996.0;;;10.48;82.12
68376;BME280;55318;52.068;5.188;2023-03-20T01:37:45;101994.0;;;10.54;81.72
68376;BME280;55318;52.068;5.188;2023-03-20T01:39:27;102001.0;;;10.37;81.97
68376;BME280;55318;52.068;5.188;2023-03-20T01:42:48;101997.0;;;10.36;81.77
68376;BME280;55318;52.068;5.188;2023-03-20T01:44:27;101996.0;;;10.31;82.39
68376;BME280;55318;52.068;5.188;2023-03-20T01:46:14;101989.0;;;10.34;82.18
68376;BME280;55318;52.068;5.188;2023-03-20T01:47:54;101984.0;;;10.29;81.66
68376;BME280;55318;52.068;5.188;2023-03-20T01:52:11;101984.0;;;10.23;81.22
68376;BME280;55318;52.068;5.188;2023-03-20T01:55:28;101988.0;;;10.23;80.61
68376;BME280;55318;52.068;5.188;2023-03-20T01:57:08;101996.0;;;10.09;80.69
68376;BME280;55318;52.068;5.188;2023-03-20T01:58:51;102011.0;;;10.18;80.49
68376;BME280;55318;52.068;5.188;2023-03-20T02:00:31;102011.0;;;9.98;81.2
68376;BME280;55318;52.068;5.188;2023-03-20T02:03:52;102005.0;;;9.98;81.3
68376;BME280;55318;52.068;5.188;2023-03-20T02:05:29;102007.0;;;10.14;80.37
68376;BME280;55318;52.068;5.188;2023-03-20T02:07:07;102009.0;;;10.14;80.14
68376;BME280;55318;52.068;5.188;2023-03-20T02:08:48;102009.0;;;9.86;81.09
68376;BME280;55318;52.068;5.188;2023-03-20T02:12:02;102015.0;;;9.81;81.77
68376;BME280;55318;52.068;5.188;2023-03-20T02:13:39;102017.0;;;9.99;81.22
68376;BME280;55318;52.068;5.188;2023-03-20T02:15:16;102001.0;;;10.09;80.87
68376;BME280;55318;52.068;5.188;2023-03-20T02:16:53;101997.0;;;9.9;81.86
68376;BME280;55318;52.068;5.188;2023-03-20T02:20:16;101996.0;;;9.78;82.91
68376;BME280;55318;52.068;5.188;2023-03-20T02:22:19;101982.0;;;9.98;82.45
68376;BME280;55318;52.068;5.188;2023-03-20T02:26:01;101972.0;;;9.98;82.66
68376;BME280;55318;52.068;5.188;2023-03-20T02:26:21;101972.0;;;9.98;82.66
68376;BME280;55318;52.068;5.188;2023-03-20T02:28:30;101975.0;;;9.92;83.04
68376;BME280;55318;52.068;5.188;2023-03-20T02:30:59;101977.0;;;9.98;83.28
68376;BME280;55318;52.068;5.188;2023-03-20T02:35:52;101974.0;;;9.93;83.33
68376;BME280;55318;52.068;5.188;2023-03-20T02:40:15;101968.0;;;9.92;82.92
68376;BME280;55318;52.068;5.188;2023-03-20T02:41:59;101968.0;;;9.73;83.31
68376;BME280;55318;52.068;5.188;2023-03-20T02:45:30;101972.0;;;9.76;83.11
68376;BME280;55318;52.068;5.188;2023-03-20T02:47:13;101977.0;;;9.86;82.83
68376;BME280;55318;52.068;5.188;2023-03-20T02:48:56;101978.0;;;9.65;83.0
68376;BME280;55318;52.068;5.188;2023-03-20T02:50:42;101965.0;;;9.82;82.49
68376;BME280;55318;52.068;5.188;2023-03-20T02:52:31;101950.0;;;9.65;83.16
68376;BME280;55318;52.068;5.188;2023-03-20T02:56:02;101937.0;;;9.83;82.51
68376;BME280;55318;52.068;5.188;2023-03-20T02:57:49;101932.0;;;9.72;82.75
68376;BME280;55318;52.068;5.188;2023-03-20T02:59:34;101928.0;;;9.51;82.92
68376;BME280;55318;52.068;5.188;2023-03-20T03:01:20;101920.0;;;9.58;82.96
68376;BME280;55318;52.068;5.188;2023-03-20T03:03:05;101913.0;;;9.52;83.15
68376;BME280;55318;52.068;5.188;2023-03-20T03:06:28;101897.0;;;9.51;83.36
68376;BME280;55318;52.068;5.188;2023-03-20T03:08:07;101906.0;;;9.59;82.95
68376;BME280;55318;52.068;5.188;2023-03-20T03:09:49;101925.0;;;9.48;83.25
68376;BME280;55318;52.068;5.188;2023-03-20T03:11:29;101930.0;;;9.53;82.96
68376;BME280;55318;52.068;5.188;2023-03-20T03:14:52;101934.0;;;9.51;82.76
68376;BME280;55318;52.068;5.188;2023-03-20T03:16:32;101934.0;;;9.58;82.57
68376;BME280;55318;52.068;5.188;2023-03-20T03:18:14;101930.0;;;9.66;82.21
68376;BME280;55318;52.068;5.188;2023-03-20T03:19:57;101926.0;;;9.57;82.48
68376;BME280;55318;52.068;5.188;2023-03-20T03:23:26;101930.0;;;9.23;83.54
68376;BME280;55318;52.068;5.188;2023-03-20T03:25:03;101933.0;;;9.49;82.95
68376;BME280;55318;52.068;5.188;2023-03-20T03:26:40;101933.0;;;9.6;82.7
68376;BME280;55318;52.068;5.188;2023-03-20T03:28:23;101927.0;;;9.46;83.0
68376;BME280;55318;52.068;5.188;2023-03-20T03:30:06;101920.0;;;9.3;83.93
68376;BME280;55318;52.068;5.188;2023-03-20T03:33:27;101916.0;;;9.3;83.71
68376;BME280;55318;52.068;5.188;2023-03-20T03:35:06;101924.0;;;9.24;83.97
68376;BME280;55318;52.068;5.188;2023-03-20T03:36:53;101924.0;;;9.15;84.2
68376;BME280;55318;52.068;5.188;2023-03-20T03:38:43;101927.0;;;9.32;83.8
68376;BME280;55318;52.068;5.188;2023-03-20T03:42:12;101926.0;;;9.25;83.68
68376;BME280;55318;52.068;5.188;2023-03-20T03:44:04;101918.0;;;9.17;83.91
68376;BME280;55318;52.068;5.188;2023-03-20T03:45:50;101913.0;;;9.1;84.62
68376;BME280;55318;52.068;5.188;2023-03-20T03:47:32;101907.0;;;9.14;84.28
68376;BME280;55318;52.068;5.188;2023-03-20T03:49:15;101902.0;;;9.09;84.42
68376;BME280;55318;52.068;5.188;2023-03-20T03:52:35;101905.0;;;9.14;84.58
68376;BME280;55318;52.068;5.188;2023-03-20T03:54:17;101899.0;;;9.09;84.72
68376;BME280;55318;52.068;5.188;2023-03-20T03:55:59;101900.0;;;9.06;84.61
68376;BME280;55318;52.068;5.188;2023-03-20T03:57:40;101898.0;;;9.06;84.76
68376;BME280;55318;52.068;5.188;2023-03-20T04:01:04;101888.0;;;8.98;84.91
68376;BME280;55318;52.068;5.188;2023-03-20T04:02:44;101884.0;;;8.96;84.93
68376;BME280;55318;52.068;5.188;2023-03-20T04:04:24;101882.0;;;8.99;84.7
68376;BME280;55318;52.068;5.188;2023-03-20T04:06:04;101882.0;;;9.02;84.73
68376;BME280;55318;52.068;5.188;2023-03-20T04:07:43;101887.0;;;8.98;84.42
68376;BME280;55318;52.068;5.188;2023-03-20T04:10:57;101885.0;;;8.84;84.76
68376;BME280;55318;52.068;5.188;2023-03-20T04:12:36;101882.0;;;8.78;84.79
68376;BME280;55318;52.068;5.188;2023-03-20T04:14:13;101880.0;;;8.98;84.2
68376;BME280;55318;52.068;5.188;2023-03-20T04:17:27;101874.0;;;9.08;83.55
68376;BME280;55318;52.068;5.188;2023-03-20T04:19:04;101869.0;;;8.88;84.03
68376;BME280;55318;52.068;5.188;2023-03-20T04:20:41;101874.0;;;9.01;83.6
68376;BME280;55318;52.068;5.188;2023-03-20T04:23:54;101868.0;;;8.9;83.79
68376;BME280;55318;52.068;5.188;2023-03-20T04:25:31;101874.0;;;9.14;83.37
68376;BME280;55318;52.068;5.188;2023-03-20T04:27:07;101878.0;;;9.11;83.34
68376;BME280;55318;52.068;5.188;2023-03-20T04:28:43;101880.0;;;8.84;84.02
68376;BME280;55318;52.068;5.188;2023-03-20T04:31:56;101878.0;;;8.98;83.99
68376;BME280;55318;52.068;5.188;2023-03-20T04:33:33;101880.0;;;8.93;84.25
68376;BME280;55318;52.068;5.188;2023-03-20T04:35:09;101889.0;;;9.06;83.91
68376;BME280;55318;52.068;5.188;2023-03-20T04:38:24;101890.0;;;9.09;83.69
68376;BME280;55318;52.068;5.188;2023-03-20T04:40:01;101890.0;;;9.1;83.31
68376;BME280;55318;52.068;5.188;2023-03-20T04:41:38;101890.0;;;9.1;83.74
68376;BME280;55318;52.068;5.188;2023-03-20T04:44:51;101886.0;;;8.98;84.35
68376;BME280;55318;52.068;5.188;2023-03-20T04:46:28;101886.0;;;9.07;84.15
68376;BME280;55318;52.068;5.188;2023-03-20T04:48:05;101885.0;;;9.08;84.29
68376;BME280;55318;52.068;5.188;2023-03-20T04:49:42;101880.0;;;9.1;84.22
68376;BME280;55318;52.068;5.188;2023-03-20T04:52:55;101877.0;;;9.03;84.48
68376;BME280;55318;52.068;5.188;2023-03-20T04:54:32;101876.0;;;9.06;84.42
68376;BME280;55318;52.068;5.188;2023-03-20T04:56:09;101880.0;;;9.17;84.22
68376;BME280;55318;52.068;5.188;2023-03-20T04:59:22;101873.0;;;9.14;84.1
68376;BME280;55318;52.068;5.188;2023-03-20T05:00:58;101872.0;;;9.23;83.98
68376;BME280;55318;52.068;5.188;2023-03-20T05:02:34;101869.0;;;9.14;83.66
68376;BME280;55318;52.068;5.188;2023-03-20T05:05:46;101869.0;;;9.21;83.77
68376;BME280;55318;52.068;5.188;2023-03-20T05:07:23;101874.0;;;9.11;83.93
68376;BME280;55318;52.068;5.188;2023-03-20T05:08:59;101872.0;;;9.23;83.96
68376;BME280;55318;52.068;5.188;2023-03-20T05:10:36;101873.0;;;9.33;83.36
68376;BME280;55318;52.068;5.188;2023-03-20T05:13:48;101870.0;;;9.22;83.57
68376;BME280;55318;52.068;5.188;2023-03-20T05:15:24;101866.0;;;9.23;83.66
68376;BME280;55318;52.068;5.188;2023-03-20T05:17:01;101858.0;;;9.26;83.69
68376;BME280;55318;52.068;5.188;2023-03-20T05:20:14;101864.0;;;9.19;83.71
68376;BME280;55318;52.068;5.188;2023-03-20T05:21:51;101867.0;;;9.17;83.94
68376;BME280;55318;52.068;5.188;2023-03-20T05:23:27;101870.0;;;9.15;84.06
68376;BME280;55318;52.068;5.188;2023-03-20T05:26:41;101869.0;;;9.14;84.34
68376;BME280;55318;52.068;5.188;2023-03-20T05:28:17;101872.0;;;9.26;83.74
68376;BME280;55318;52.068;5.188;2023-03-20T05:29:53;101870.0;;;9.02;84.5
68376;BME280;55318;52.068;5.188;2023-03-20T05:31:30;101867.0;;;9.17;84.23
68376;BME280;55318;52.068;5.188;2023-03-20T05:34:42;101867.0;;;9.11;84.23
68376;BME280;55318;52.068;5.188;2023-03-20T05:36:18;101866.0;;;9.11;84.28
68376;BME280;55318;52.068;5.188;2023-03-20T05:37:54;101865.0;;;8.98;84.98
68376;BME280;55318;52.068;5.188;2023-03-20T05:41:06;101870.0;;;9.06;84.55
68376;BME280;55318;52.068;5.188;2023-03-20T05:42:43;101871.0;;;9.0;84.88
68376;BME280;55318;52.068;5.188;2023-03-20T05:44:20;101875.0;;;8.97;85.05
68376;BME280;55318;52.068;5.188;2023-03-20T05:47:32;101882.0;;;8.98;85.13
68376;BME280;55318;52.068;5.188;2023-03-20T05:49:08;101886.0;;;8.96;85.35
68376;BME280;55318;52.068;5.188;2023-03-20T05:50:44;101890.0;;;9.03;85.13
68376;BME280;55318;52.068;5.188;2023-03-20T05:52:21;101892.0;;;9.05;84.98
68376;BME280;55318;52.068;5.188;2023-03-20T05:55:33;101892.0;;;9.05;84.84
68376;BME280;55318;52.068;5.188;2023-03-20T05:57:09;101895.0;;;9.08;84.95
68376;BME280;55318;52.068;5.188;2023-03-20T05:58:45;101891.0;;;8.98;85.13
68376;BME280;55318;52.068;5.188;2023-03-20T06:07:14;101894.0;;;9.14;84.66
68376;BME280;55318;52.068;5.188;2023-03-20T06:10:32;101895.0;;;9.19;84.58
68376;BME280;55318;52.068;5.188;2023-03-20T06:12:08;101891.0;;;9.22;84.51
68376;BME280;55318;52.068;5.188;2023-03-20T06:13:44;101892.0;;;9.27;84.24
68376;BME280;55318;52.068;5.188;2023-03-20T06:15:20;101895.0;;;9.26;84.27
68376;BME280;55318;52.068;5.188;2023-03-20T06:18:33;101894.0;;;9.11;84.46
68376;BME280;55318;52.068;5.188;2023-03-20T06:20:10;101899.0;;;9.14;84.73
68376;BME280;55318;52.068;5.188;2023-03-20T06:21:46;101891.0;;;8.99;85.51
68376;BME280;55318;52.068;5.188;2023-03-20T06:24:59;101901.0;;;9.17;84.87
68376;BME280;55318;52.068;5.188;2023-03-20T06:26:35;101900.0;;;8.91;85.21
68376;BME280;55318;52.068;5.188;2023-03-20T06:28:12;101907.0;;;9.06;85.24
68376;BME280;55318;52.068;5.188;2023-03-20T06:31:24;101907.0;;;9.19;84.89
68376;BME280;55318;52.068;5.188;2023-03-20T06:33:00;101907.0;;;8.98;85.47
68376;BME280;55318;52.068;5.188;2023-03-20T06:34:36;101914.0;;;8.94;85.91
68376;BME280;55318;52.068;5.188;2023-03-20T06:37:49;101911.0;;;9.11;85.46
68376;BME280;55318;52.068;5.188;2023-03-20T06:39:26;101915.0;;;8.85;86.16
68376;BME280;55318;52.068;5.188;2023-03-20T06:41:02;101912.0;;;8.96;85.92
68376;BME280;55318;52.068;5.188;2023-03-20T06:42:38;101918.0;;;8.86;86.28
68376;BME280;55318;52.068;5.188;2023-03-20T06:45:50;101914.0;;;8.89;86.35
68376;BME280;55318;52.068;5.188;2023-03-20T06:47:27;101919.0;;;8.92;85.98
68376;BME280;55318;52.068;5.188;2023-03-20T06:49:03;101918.0;;;8.98;85.69
68376;BME280;55318;52.068;5.188;2023-03-20T06:52:17;101917.0;;;8.93;86.1
68376;BME280;55318;52.068;5.188;2023-03-20T06:53:55;101914.0;;;9.07;85.73
68376;BME280;55318;52.068;5.188;2023-03-20T06:55:31;101918.0;;;9.09;85.72
68376;BME280;55318;52.068;5.188;2023-03-20T06:58:43;101919.0;;;9.06;85.75
68376;BME280;55318;52.068;5.188;2023-03-20T07:00:20;101918.0;;;9.09;85.54
68376;BME280;55318;52.068;5.188;2023-03-20T07:01:57;101915.0;;;8.98;86.02
68376;BME280;55318;52.068;5.188;2023-03-20T07:03:33;101914.0;;;8.97;86.05
68376;BME280;55318;52.068;5.188;2023-03-20T07:06:46;101920.0;;;8.92;86.15
68376;BME280;55318;52.068;5.188;2023-03-20T07:08:22;101918.0;;;9.03;85.98
68376;BME280;55318;52.068;5.188;2023-03-20T07:09:58;101923.0;;;8.93;86.15
68376;BME280;55318;52.068;5.188;2023-03-20T07:13:11;101925.0;;;9.16;85.63
68376;BME280;55318;52.068;5.188;2023-03-20T07:14:47;101925.0;;;8.99;85.98
68376;BME280;55318;52.068;5.188;2023-03-20T07:16:24;101928.0;;;9.13;85.59
68376;BME280;55318;52.068;5.188;2023-03-20T07:19:36;101927.0;;;9.02;85.7
68376;BME280;55318;52.068;5.188;2023-03-20T07:21:16;101925.0;;;9.1;85.6
68376;BME280;55318;52.068;5.188;2023-03-20T07:22:54;101930.0;;;9.1;85.78
68376;BME280;55318;52.068;5.188;2023-03-20T07:24:31;101925.0;;;9.14;85.36
68376;BME280;55318;52.068;5.188;2023-03-20T07:27:43;101930.0;;;9.1;85.38
68376;BME280;55318;52.068;5.188;2023-03-20T07:29:20;101930.0;;;9.0;85.57
68376;BME280;55318;52.068;5.188;2023-03-20T07:30:56;101926.0;;;9.18;85.31
68376;BME280;55318;52.068;5.188;2023-03-20T07:34:10;101928.0;;;9.03;85.51
68376;BME280;55318;52.068;5.188;2023-03-20T07:35:51;101927.0;;;9.14;85.14
68376;BME280;55318;52.068;5.188;2023-03-20T07:37:28;101926.0;;;9.23;84.98
68376;BME280;55318;52.068;5.188;2023-03-20T07:39:04;101930.0;;;9.21;84.98
68376;BME280;55318;52.068;5.188;2023-03-20T07:42:16;101925.0;;;9.23;84.93
68376;BME280;55318;52.068;5.188;2023-03-20T07:43:52;101930.0;;;9.3;84.9
68376;BME280;55318;52.068;5.188;2023-03-20T07:45:28;101925.0;;;9.21;84.86
68376;BME280;55318;52.068;5.188;2023-03-20T07:48:41;101928.0;;;9.26;84.38
68376;BME280;55318;52.068;5.188;2023-03-20T07:50:17;101927.0;;;9.18;84.76
68376;BME280;55318;52.068;5.188;2023-03-20T07:51:54;101927.0;;;9.18;84.64
68376;BME280;55318;52.068;5.188;2023-03-20T07:55:07;101926.0;;;9.1;84.73
68376;BME280;55318;52.068;5.188;2023-03-20T07:56:43;101930.0;;;9.24;84.47
68376;BME280;55318;52.068;5.188;2023-03-20T07:58:19;101930.0;;;9.23;84.26
68376;BME280;55318;52.068;5.188;2023-03-20T07:59:55;101930.0;;;9.35;84.16
68376;BME280;55318;52.068;5.188;2023-03-20T08:03:08;101928.0;;;9.32;83.86
68376;BME280;55318;52.068;5.188;2023-03-20T08:04:45;101930.0;;;9.39;83.6
68376;BME280;55318;52.068;5.188;2023-03-20T08:06:21;101931.0;;;9.46;83.23
68376;BME280;55318;52.068;5.188;2023-03-20T08:09:35;101936.0;;;9.35;83.12
68376;BME280;55318;52.068;5.188;2023-03-20T08:11:11;101926.0;;;9.32;83.18
68376;BME280;55318;52.068;5.188;2023-03-20T08:12:48;101932.0;;;9.33;83.16
68376;BME280;55318;52.068;5.188;2023-03-20T08:16:01;101930.0;;;9.41;83.16
68376;BME280;55318;52.068;5.188;2023-03-20T08:17:37;101927.0;;;9.21;83.46
68376;BME280;55318;52.068;5.188;2023-03-20T08:19:17;101931.0;;;9.38;83.2
68376;BME280;55318;52.068;5.188;2023-03-20T08:20:53;101932.0;;;9.47;82.55
68376;BME280;55318;52.068;5.188;2023-03-20T08:24:06;101933.0;;;9.6;82.53
68376;BME280;55318;52.068;5.188;2023-03-20T08:25:46;101926.0;;;9.55;82.17
68376;BME280;55318;52.068;5.188;2023-03-20T08:27:22;101927.0;;;9.72;82.01
68376;BME280;55318;52.068;5.188;2023-03-20T08:30:34;101933.0;;;9.58;82.0
68376;BME280;55318;52.068;5.188;2023-03-20T08:32:10;101927.0;;;9.61;82.04
68376;BME280;55318;52.068;5.188;2023-03-20T08:33:46;101925.0;;;9.81;81.73
68376;BME280;55318;52.068;5.188;2023-03-20T08:37:02;101932.0;;;9.77;82.28
68376;BME280;55318;52.068;5.188;2023-03-20T08:38:39;101931.0;;;9.81;82.05
68376;BME280;55318;52.068;5.188;2023-03-20T08:40:15;101923.0;;;9.67;82.26
68376;BME280;55318;52.068;5.188;2023-03-20T08:41:51;101932.0;;;9.57;83.58
68376;BME280;55318;52.068;5.188;2023-03-20T08:45:04;101930.0;;;9.55;83.52
68376;BME280;55318;52.068;5.188;2023-03-20T08:46:40;101924.0;;;9.77;83.73
68376;BME280;55318;52.068;5.188;2023-03-20T08:48:17;101927.0;;;9.66;83.98
68376;BME280;55318;52.068;5.188;2023-03-20T08:51:28;101926.0;;;9.71;84.23
68376;BME280;55318;52.068;5.188;2023-03-20T08:53:05;101917.0;;;9.63;84.96
68376;BME280;55318;52.068;5.188;2023-03-20T08:54:42;101933.0;;;9.64;85.6
68376;BME280;55318;52.068;5.188;2023-03-20T08:57:55;101934.0;;;9.44;85.62
68376;BME280;55318;52.068;5.188;2023-03-20T08:59:30;101936.0;;;9.56;85.77
68376;BME280;55318;52.068;5.188;2023-03-20T09:02:45;101936.0;;;9.43;86.29
68376;BME280;55318;52.068;5.188;2023-03-20T09:05:57;101933.0;;;9.32;86.33
68376;BME280;55318;52.068;5.188;2023-03-20T09:07:33;101931.0;;;9.34;87.21
68376;BME280;55318;52.068;5.188;2023-03-20T09:09:09;101933.0;;;9.39;87.16
68376;BME280;55318;52.068;5.188;2023-03-20T09:12:23;101939.0;;;9.39;87.64
68376;BME280;55318;52.068;5.188;2023-03-20T09:13:59;101936.0;;;9.39;87.4
68376;BME280;55318;52.068;5.188;2023-03-20T09:15:36;101938.0;;;9.31;88.15
68376;BME280;55318;52.068;5.188;2023-03-20T09:18:48;101940.0;;;9.42;88.85
68376;BME280;55318;52.068;5.188;2023-03-20T09:20:24;101943.0;;;9.38;88.29
68376;BME280;55318;52.068;5.188;2023-03-20T09:22:00;101943.0;;;9.46;88.07
68376;BME280;55318;52.068;5.188;2023-03-20T09:23:36;101940.0;;;9.3;88.59
68376;BME280;55318;52.068;5.188;2023-03-20T09:26:50;101943.0;;;9.32;90.05
68376;BME280;55318;52.068;5.188;2023-03-20T09:28:26;101939.0;;;9.34;89.69
68376;BME280;55318;52.068;5.188;2023-03-20T09:30:03;101937.0;;;9.33;89.54
68376;BME280;55318;52.068;5.188;2023-03-20T09:33:15;101939.0;;;9.4;89.36
68376;BME280;55318;52.068;5.188;2023-03-20T09:34:51;101935.0;;;9.41;89.37
68376;BME280;55318;52.068;5.188;2023-03-20T09:36:28;101933.0;;;9.44;89.5
68376;BME280;55318;52.068;5.188;2023-03-20T09:39:41;101940.0;;;9.51;88.79
68376;BME280;55318;52.068;5.188;2023-03-20T09:41:19;101935.0;;;9.56;89.08
68376;BME280;55318;52.068;5.188;2023-03-20T09:43:03;101931.0;;;9.5;88.75
68376;BME280;55318;52.068;5.188;2023-03-20T09:44:53;101933.0;;;9.57;89.1
68376;BME280;55318;52.068;5.188;2023-03-20T09:48:30;101933.0;;;9.48;88.84
68376;BME280;55318;52.068;5.188;2023-03-20T09:50:17;101930.0;;;9.59;89.29
68376;BME280;55318;52.068;5.188;2023-03-20T09:52:04;101935.0;;;9.63;89.11
68376;BME280;55318;52.068;5.188;2023-03-20T09:53:55;101932.0;;;9.67;88.49
68376;BME280;55318;52.068;5.188;2023-03-20T09:55:37;101927.0;;;9.72;88.42
68376;BME280;55318;52.068;5.188;2023-03-20T09:57:18;101928.0;;;9.81;88.05
68376;BME280;55318;52.068;5.188;2023-03-20T10:00:42;101930.0;;;9.9;88.72
68376;BME280;55318;52.068;5.188;2023-03-20T10:02:24;101928.0;;;9.93;88.4
68376;BME280;55318;52.068;5.188;2023-03-20T10:04:11;101924.0;;;10.07;89.11
68376;BME280;55318;52.068;5.188;2023-03-20T10:05:51;101930.0;;;10.06;88.77
68376;BME280;55318;52.068;5.188;2023-03-20T10:09:14;101932.0;;;10.0;87.79
68376;BME280;55318;52.068;5.188;2023-03-20T10:10:56;101933.0;;;9.99;88.48
68376;BME280;55318;52.068;5.188;2023-03-20T10:12:48;101934.0;;;10.03;88.04
68376;BME280;55318;52.068;5.188;2023-03-20T10:14:33;101935.0;;;9.97;87.75
68376;BME280;55318;52.068;5.188;2023-03-20T10:16:26;101933.0;;;9.92;86.77
68376;BME280;55318;52.068;5.188;2023-03-20T10:18:16;101927.0;;;10.14;87.08
68376;BME280;55318;52.068;5.188;2023-03-20T10:21:47;101926.0;;;10.0;86.27
68376;BME280;55318;52.068;5.188;2023-03-20T10:23:28;101921.0;;;10.02;87.11
68376;BME280;55318;52.068;5.188;2023-03-20T10:25:19;101918.0;;;10.1;87.22
68376;BME280;55318;52.068;5.188;2023-03-20T10:27:03;101919.0;;;10.13;86.89
68376;BME280;55318;52.068;5.188;2023-03-20T10:28:50;101919.0;;;10.23;86.8
68376;BME280;55318;52.068;5.188;2023-03-20T10:32:27;101915.0;;;10.27;86.13
68376;BME280;55318;52.068;5.188;2023-03-20T10:34:22;101919.0;;;10.15;86.12
68376;BME280;55318;52.068;5.188;2023-03-20T10:36:25;101924.0;;;9.94;87.41
68376;BME280;55318;52.068;5.188;2023-03-20T10:38:20;101917.0;;;10.06;87.15
68376;BME280;55318;52.068;5.188;2023-03-20T10:40:16;101912.0;;;10.11;86.86
68376;BME280;55318;52.068;5.188;2023-03-20T10:42:00;101910.0;;;10.05;87.49
68376;BME280;55318;52.068;5.188;2023-03-20T10:43:41;101910.0;;;10.31;87.76
68376;BME280;55318;52.068;5.188;2023-03-20T10:45:28;101912.0;;;10.16;87.43
68376;BME280;55318;52.068;5.188;2023-03-20T10:48:56;101905.0;;;10.14;86.34
68376;BME280;55318;52.068;5.188;2023-03-20T10:50:39;101906.0;;;10.21;87.99
68376;BME280;55318;52.068;5.188;2023-03-20T10:52:21;101905.0;;;10.4;87.43
68376;BME280;55318;52.068;5.188;2023-03-20T10:54:03;101907.0;;;10.41;86.94
68376;BME280;55318;52.068;5.188;2023-03-20T10:55:42;101908.0;;;10.41;87.13
68376;BME280;55318;52.068;5.188;2023-03-20T10:59:02;101909.0;;;10.19;86.32
68376;BME280;55318;52.068;5.188;2023-03-20T11:00:42;101912.0;;;10.17;86.11
68376;BME280;55318;52.068;5.188;2023-03-20T11:02:21;101915.0;;;10.01;87.27
68376;BME280;55318;52.068;5.188;2023-03-20T11:05:36;101905.0;;;10.1;88.04
68376;BME280;55318;52.068;5.188;2023-03-20T11:07:18;101905.0;;;10.16;87.45
68376;BME280;55318;52.068;5.188;2023-03-20T11:09:10;101905.0;;;10.28;88.15
68376;BME280;55318;52.068;5.188;2023-03-20T11:10:57;101902.0;;;10.08;88.56
68376;BME280;55318;52.068;5.188;2023-03-20T11:12:37;101900.0;;;10.17;88.75
68376;BME280;55318;52.068;5.188;2023-03-20T11:15:54;101899.0;;;10.14;88.52
68376;BME280;55318;52.068;5.188;2023-03-20T11:17:32;101898.0;;;10.23;88.7
68376;BME280;55318;52.068;5.188;2023-03-20T11:19:10;101895.0;;;10.19;88.55
68376;BME280;55318;52.068;5.188;2023-03-20T11:20:50;101895.0;;;10.18;88.41
68376;BME280;55318;52.068;5.188;2023-03-20T11:24:05;101887.0;;;10.13;88.62
68376;BME280;55318;52.068;5.188;2023-03-20T11:25:57;101885.0;;;10.14;88.64
68376;BME280;55318;52.068;5.188;2023-03-20T11:27:35;101886.0;;;10.14;88.9
68376;BME280;55318;52.068;5.188;2023-03-20T11:29:21;101874.0;;;10.13;88.57